Gifford, Kentucky
Current Conditions -  °F | °C
As of 4:53 AM on Sunday 23 Nov 2014 (Local Time) from KJKL Reporting Station
Overcast Overcast  
Wind Chill: 52°   Ceiling: 10000
Heat Index: 52°   Visibility: 10mi
Dew Point: 31°   Wind: 3mph
Humidity: 45%   Direction: NA
Pressure: 30.08"   Gusts: NA
Location:  37.7261°N, 83.0786°W
Report Text: KJKL 230953Z AUTO VRB03KT 10SM OVC100 11/M01 A3008 RMK AO2 SLP180 T01111006
Loading
Personal Weather Stations






























Interactive Weather Map New forecast layout! Learn more

10-Day Weather Forecast

Advertisements
Track Severe Weather on mobile